Beaver Bay, MN

2:46 PM CDT on September 23, 2014 (GMT -0500)
Silver Bay Municipal | Change Station
CLOSE
Current Station
Airport
Location: Silver Bay,
Elevation: 1086 ft
Nearby Weather Stations

Elev 1086 ft 47.25 °N, 91.42 °W | Updated 12 minutes ago

Clear
Clear
70 °F
Feels Like 70 °F
N
15
Wind Variable Wind from South
Gusts 20 mph

Today
High -- | Low -- °F
--% Chance of Precip.
Yesterday
High -- | Low -- °F
Precip. -- in
6:53 AM 7:00 PM
Waning Crescent, 0% visible
Pressure 30.17 in
Visibility 10.0 miles
Clouds Clear
Dew Point 55 °F
Humidity 60%
Rainfall 0.00 in
Snow Depth Not available.
UV 5 out of 12
Pollen 2.60 out of 12
Air Quality Not available.
Flu Activity Not available.
METAR KBFW 231934Z AUTO 19013G17KT 10SM CLR 21/13 A3017 RMK AO2

More Conditions Fewer Conditions

Pressure 30.17 in
Visibility 10.0 miles
Clouds Clear
Dew Point 55 °F
Humidity 60%
Rainfall 0.00 in
Snow Depth Not available.
UV 5 out of 12
Pollen 2.60 out of 12
Air Quality Not available.
Flu Activity Not available.
METAR KBFW 231934Z AUTO 19013G17KT 10SM CLR 21/13 A3017 RMK AO2

More Conditions Fewer Conditions

10-Day Weather Forecast

Almanac

Astronomy

Sep. 23, 2014 Rise Set
Actual Time 6:53 AM CDT 7:00 PM CDT
Civil Twilight 6:22 AM CDT 7:31 PM CDT
Nautical Twilight 5:46 AM CDT 8:07 PM CDT
Astronomical Twilight 5:09 AM CDT 8:44 PM CDT
Moon 6:17 AM CDT 6:38 PM CDT
Length of Visible Light 13h 08m
Length of Day
12h 07m
Tomorrow will be 3m 23s shorter.
Waning Crescent, 0% of the Moon is Illuminated
Today
Waning Crescent
Sep 24
New
Oct 1
First Quarter
Oct 8
Full
Oct 15
Last Quarter

Today's Extremes

State Highs State Lows

Community

WunderPhotos

Upload Photos

1,755,788 photos uploaded!

WunderBlogs® & News

Nearby

Snow Depth

Station Depth Elevation
No new snow has been reported.

Earthquake Activity

City Distance Mag. Time & Date
No recent earthquake activity has been reported nearby.
Minimum magnitude displayed is 2.5.

Coastal Water Temperatures

Place Temperature
Duluth, MN 60.1 °F

Nearby Weather Stations